Muncy, PA (17756)

1:51 PM EST on December 22, 2014 (GMT -0500)
K3LYC | Change Station
CLOSE
Current Station
Personal Weather Station
Location: Muncy, PA
Elevation: 499 ft
Nearby Weather Stations

Elev 499 ft 41.21 °N, 76.78 °W | Updated 13 minutes ago

Overcast
Overcast
36.7 °F
Feels Like 31 °F
N
6.8
Wind Variable Wind from WSW

Today
High -- | Low -- °F
--% Chance of Precip.
Yesterday
High -- | Low -- °F
Precip. -- in
7:29 AM 4:41 PM
New Moon, 1% visible
Pressure 30.21 in
Visibility 10.0 miles
Clouds Mostly Cloudy 2100 ft
Overcast 4000 ft
Windchill 31 °F
Dew Point 28 °F
Humidity 69%
Rainfall 0.00 in
Snow Depth Not available.
UV 1 out of 12
Pollen .10 out of 12
Air Quality Not available.
Flu Activity Not available.
SPECI KIPT 221829Z 00000KT 10SM BKN021 OVC040 01/M04 A3021 RMK AO2 T00111039

More Conditions Fewer Conditions

Pressure 30.21 in
Visibility 10.0 miles
Clouds Mostly Cloudy 2100 ft
Overcast 4000 ft
Windchill 31 °F
Dew Point 28 °F
Humidity 69%
Rainfall 0.00 in
Snow Depth Not available.
UV 1 out of 12
Pollen .10 out of 12
Air Quality Not available.
Flu Activity Not available.
SPECI KIPT 221829Z 00000KT 10SM BKN021 OVC040 01/M04 A3021 RMK AO2 T00111039

More Conditions Fewer Conditions

10-Day Weather Forecast

Almanac

Astronomy

Dec. 22, 2014 Rise Set
Actual Time
Civil Twilight
Nautical Twilight
Astronomical Twilight
Moon
Length of Visible Light
Length of Day
Tomorrow will be .
, % of the Moon is Illuminated

Today's Extremes

State Highs State Lows

Community

WunderPhotos

Upload Photos

1,779,687 photos uploaded!

WunderBlogs® & News

Nearby

Air Quality

  Air Quality AQ Index Pollutant
Not available.

Snow Depth

Station Depth Elevation

Earthquake Activity

City Distance Mag. Time & Date
Minimum magnitude displayed is 2.5.

Coastal Water Temperatures

Place Temperature

Nearby Weather Stations